Time;durP1;ratioP1;P1;durP2;ratioP2;P2;SDS_P1;SDS_P2;PMS_P1;PMS_P2;Temp;Humidity;BMP_temperature;BMP_pressure;BME280_temperature;BME280_humidity;BME280_pressure;Samples;Min_cycle;Max_cycle;Signal;HPM_P1;HPM_P2
2022/05/28 00:00:42;;;;;;;3.90;2.43;;;13.60;99.90;;;;;;5080351;28;20389;-82
2022/05/28 00:03:28;;;;;;;5.33;2.63;;;13.60;99.90;;;;;;5079742;28;20424;-82
2022/05/28 00:06:16;;;;;;;5.70;2.77;;;13.50;99.90;;;;;;5065199;28;20421;-81
2022/05/28 00:09:01;;;;;;;6.30;2.13;;;13.50;99.90;;;;;;5079875;28;20483;-82
2022/05/28 00:11:46;;;;;;;5.57;2.47;;;13.50;99.90;;;;;;5080250;28;20447;-81
2022/05/28 00:14:31;;;;;;;8.53;2.27;;;13.50;99.90;;;;;;5065180;28;20436;-81
2022/05/28 00:17:15;;;;;;;5.63;2.50;;;13.40;99.90;;;;;;5080149;28;20741;-80
2022/05/28 00:19:59;;;;;;;3.87;3.53;;;13.40;99.90;;;;;;5079739;28;20386;-81
2022/05/28 00:22:44;;;;;;;3.40;2.30;;;13.40;99.90;;;;;;5080053;28;20806;-81
2022/05/28 00:25:29;;;;;;;3.33;2.77;;;13.40;99.90;;;;;;5080224;28;20392;-81
2022/05/28 00:28:14;;;;;;;2.30;2.10;;;13.40;99.90;;;;;;5082809;28;20381;-81
2022/05/28 00:31:00;;;;;;;3.67;2.37;;;13.30;99.90;;;;;;5084845;28;20384;-82
2022/05/28 00:33:45;;;;;;;2.57;2.37;;;13.30;99.90;;;;;;5083586;28;20486;-81
2022/05/28 00:36:29;;;;;;;2.57;2.37;;;13.20;99.90;;;;;;5085315;28;20377;-81
2022/05/28 00:39:14;;;;;;;1.90;1.70;;;13.10;99.90;;;;;;5085282;28;20422;-80
2022/05/28 00:41:59;;;;;;;4.27;2.70;;;13.00;99.90;;;;;;5088768;28;20472;-79
2022/05/28 00:44:44;;;;;;;5.20;2.90;;;13.00;99.90;;;;;;5090995;28;20392;-81
2022/05/28 00:47:28;;;;;;;9.83;2.20;;;12.90;99.90;;;;;;5085054;28;20403;-80
2022/05/28 00:50:14;;;;;;;12.80;2.30;;;12.90;99.90;;;;;;5084507;28;20385;-82
2022/05/28 00:52:58;;;;;;;2.40;2.07;;;12.80;99.90;;;;;;5069475;28;20474;-81
2022/05/28 00:55:43;;;;;;;6.00;2.13;;;12.80;99.90;;;;;;5084348;28;20528;-81
2022/05/28 00:58:29;;;;;;;6.43;2.47;;;12.80;99.90;;;;;;5084281;28;20393;-81
2022/05/28 01:01:15;;;;;;;5.70;1.90;;;12.70;99.90;;;;;;5069242;28;20432;-82
2022/05/28 01:04:23;;;;;;;7.73;2.20;;;12.80;99.90;;;;;;5069169;28;20411;-81
2022/05/28 01:07:27;;;;;;;2.10;1.90;;;12.70;99.90;;;;;;5072163;28;20470;-81
2022/05/28 01:10:31;;;;;;;9.17;2.73;;;12.60;99.90;;;;;;5069567;28;20419;-82
2022/05/28 01:13:30;;;;;;;6.07;1.60;;;12.40;99.90;;;;;;5086424;28;20460;-82
2022/05/28 01:16:25;;;;;;;5.03;2.17;;;12.40;99.90;;;;;;5099313;28;20404;-80
2022/05/28 01:19:35;;;;;;;3.00;2.00;;;12.50;99.90;;;;;;5086089;28;20425;-81
2022/05/28 01:22:40;;;;;;;4.70;2.73;;;12.40;99.90;;;;;;5099693;28;20385;-81
2022/05/28 01:25:44;;;;;;;2.93;2.33;;;12.30;99.90;;;;;;5085033;28;20384;-82
2022/05/28 01:28:41;;;;;;;5.77;2.33;;;12.40;99.90;;;;;;5071129;28;20453;-82
2022/05/28 01:31:27;;;;;;;5.23;2.23;;;12.50;99.90;;;;;;5067983;28;20461;-80
2022/05/28 01:34:14;;;;;;;5.13;2.77;;;12.30;99.90;;;;;;5083168;28;20439;-82
2022/05/28 01:37:01;;;;;;;5.30;2.13;;;12.30;99.90;;;;;;5085805;28;20381;-80
2022/05/28 01:39:47;;;;;;;5.60;2.80;;;12.40;99.90;;;;;;5078221;28;20404;-79
2022/05/28 01:42:34;;;;;;;4.17;1.90;;;12.40;99.90;;;;;;5091324;28;20790;-80
2022/05/28 01:45:21;;;;;;;3.67;1.70;;;12.40;99.90;;;;;;5084874;28;20389;-82
2022/05/28 01:48:07;;;;;;;18.70;2.40;;;12.40;99.90;;;;;;5082375;28;20428;-82
2022/05/28 01:50:53;;;;;;;2.57;2.00;;;12.30;99.90;;;;;;5082166;28;20428;-82
2022/05/28 01:56:42;;;;;;;6.43;3.10;;;12.20;99.90;;;;;;5082377;28;20436;-82
2022/05/28 01:59:30;;;;;;;7.80;1.87;;;12.20;99.90;;;;;;5082336;28;20420;-81
2022/05/28 02:02:16;;;;;;;8.07;2.47;;;12.20;99.90;;;;;;5082362;28;20417;-82
2022/05/28 02:05:00;;;;;;;2.67;2.10;;;12.30;99.90;;;;;;5066844;28;20401;-82
2022/05/28 02:07:46;;;;;;;2.87;2.60;;;12.30;99.90;;;;;;5082206;28;20472;-81
2022/05/28 02:10:31;;;;;;;3.73;2.57;;;12.20;99.90;;;;;;5082655;28;20397;-81
2022/05/28 02:13:23;;;;;;;2.30;2.10;;;12.10;99.90;;;;;;5066550;28;20471;-81
2022/05/28 02:16:16;;;;;;;6.13;2.07;;;12.10;99.90;;;;;;5082696;28;20413;-82
2022/05/28 02:19:05;;;;;;;2.80;2.23;;;12.10;99.90;;;;;;5082879;28;20435;-82
2022/05/28 02:22:02;;;;;;;8.23;2.63;;;12.10;99.90;;;;;;5082330;28;20389;-82
2022/05/28 02:24:56;;;;;;;10.10;1.80;;;11.90;99.90;;;;;;5081680;28;20385;-82
2022/05/28 02:27:44;;;;;;;5.13;2.60;;;11.90;99.90;;;;;;5081819;28;20393;-82
2022/05/28 02:30:31;;;;;;;7.50;3.00;;;12.10;99.90;;;;;;5081630;28;20804;-81
2022/05/28 02:33:16;;;;;;;5.37;2.10;;;12.00;99.90;;;;;;5082965;28;20463;-82
2022/05/28 02:36:02;;;;;;;4.07;1.67;;;12.10;99.90;;;;;;5084439;28;20433;-81
2022/05/28 02:38:47;;;;;;;13.10;2.97;;;12.10;99.90;;;;;;5085032;28;20424;-81
2022/05/28 02:41:32;;;;;;;7.40;2.10;;;12.10;99.90;;;;;;5082158;28;20393;-82
2022/05/28 02:44:17;;;;;;;6.00;2.30;;;12.00;99.90;;;;;;5066854;28;20412;-81
2022/05/28 02:47:03;;;;;;;6.13;2.47;;;12.10;99.90;;;;;;5082767;28;20393;-81
2022/05/28 02:49:48;;;;;;;8.67;2.50;;;12.10;99.90;;;;;;5069326;28;20408;-82
2022/05/28 02:52:33;;;;;;;5.70;1.93;;;12.00;99.90;;;;;;5070579;28;20516;-79
2022/05/28 02:55:18;;;;;;;4.27;2.47;;;12.10;99.90;;;;;;5082763;28;20416;-80
2022/05/28 02:58:03;;;;;;;7.63;2.50;;;11.80;99.90;;;;;;5081855;28;20380;-82
2022/05/28 03:00:48;;;;;;;2.60;2.40;;;11.80;99.90;;;;;;5066287;28;20412;-81
2022/05/28 03:03:34;;;;;;;2.13;2.00;;;11.80;99.90;;;;;;5081429;28;20741;-80
2022/05/28 03:06:19;;;;;;;5.03;3.17;;;11.10;99.90;;;;;;5081754;28;20424;-81
2022/05/28 03:09:06;;;;;;;4.80;2.70;;;11.00;99.90;;;;;;5081548;28;20810;-81
2022/05/28 03:11:51;;;;;;;6.77;3.80;;;10.70;99.90;;;;;;5085079;28;20419;-81
2022/05/28 03:14:36;;;;;;;8.60;3.50;;;10.40;99.90;;;;;;5092788;28;20408;-78
2022/05/28 03:17:21;;;;;;;4.20;3.73;;;9.80;99.90;;;;;;5088850;28;20389;-82
2022/05/28 03:20:06;;;;;;;5.17;3.37;;;9.50;99.90;;;;;;5082272;28;20380;-82
2022/05/28 03:22:51;;;;;;;3.67;3.37;;;9.50;99.90;;;;;;5080582;28;20401;-81
2022/05/28 03:25:35;;;;;;;4.67;3.20;;;9.50;99.90;;;;;;5039298;28;20754;-81
2022/05/28 03:28:20;;;;;;;7.57;3.70;;;9.40;99.90;;;;;;5084150;28;20385;-82
2022/05/28 03:31:05;;;;;;;9.53;5.87;;;9.20;99.90;;;;;;5083431;28;20396;-81
2022/05/28 03:33:50;;;;;;;6.63;3.60;;;9.10;99.90;;;;;;5083954;28;20957;-81
2022/05/28 03:36:34;;;;;;;5.17;3.23;;;9.10;99.90;;;;;;5069151;28;20385;-79
2022/05/28 03:39:18;;;;;;;14.40;3.37;;;9.20;99.90;;;;;;5083611;28;20377;-81
2022/05/28 03:42:04;;;;;;;6.00;2.97;;;9.30;99.90;;;;;;5083659;28;20380;-81
2022/05/28 03:44:49;;;;;;;3.53;2.87;;;9.90;99.90;;;;;;5040196;28;20409;-81
2022/05/28 03:47:34;;;;;;;6.10;1.80;;;10.40;99.90;;;;;;5053304;28;20406;-80
2022/05/28 03:50:18;;;;;;;4.10;1.77;;;10.70;99.90;;;;;;5033973;28;20799;-78
2022/05/28 03:53:03;;;;;;;4.57;2.30;;;11.00;99.90;;;;;;5061360;28;20445;-81
2022/05/28 03:55:48;;;;;;;1.63;1.53;;;11.10;99.90;;;;;;5060882;28;20456;-82
2022/05/28 03:58:32;;;;;;;1.83;1.63;;;11.20;99.90;;;;;;5060732;28;20528;-82
2022/05/28 04:01:18;;;;;;;6.60;3.40;;;11.40;99.90;;;;;;5054650;28;20387;-80
2022/05/28 04:04:04;;;;;;;14.07;3.87;;;11.50;99.90;;;;;;5045407;28;20389;-80
2022/05/28 04:06:49;;;;;;;4.53;2.27;;;11.50;99.90;;;;;;5060477;28;20401;-82
2022/05/28 04:09:33;;;;;;;4.10;1.90;;;11.50;99.90;;;;;;5060361;28;20450;-80
2022/05/28 04:12:18;;;;;;;3.97;2.10;;;11.50;99.90;;;;;;5059520;28;20445;-79
2022/05/28 04:15:03;;;;;;;9.60;3.10;;;11.60;99.90;;;;;;5044624;28;20414;-81
2022/05/28 04:17:48;;;;;;;3.20;2.00;;;11.60;99.90;;;;;;5060032;28;20390;-80
2022/05/28 04:20:34;;;;;;;5.87;2.10;;;11.80;99.90;;;;;;5060317;28;20386;-81
2022/05/28 04:23:18;;;;;;;3.10;2.20;;;11.90;99.90;;;;;;5060972;28;20408;-81
2022/05/28 04:26:03;;;;;;;3.20;1.90;;;11.80;99.90;;;;;;5060586;28;20389;-82
2022/05/28 04:28:49;;;;;;;10.20;2.07;;;11.90;99.90;;;;;;5060464;28;20432;-81
2022/05/28 04:31:33;;;;;;;14.77;2.10;;;12.00;99.90;;;;;;5060685;28;20404;-81
2022/05/28 04:34:18;;;;;;;2.70;2.27;;;12.10;99.90;;;;;;5045799;28;20405;-81
2022/05/28 04:37:03;;;;;;;5.73;1.87;;;12.10;99.90;;;;;;5060550;28;20382;-82
2022/05/28 04:39:48;;;;;;;10.13;2.03;;;11.90;99.90;;;;;;5061063;28;20436;-81
2022/05/28 04:42:34;;;;;;;9.77;2.27;;;12.10;99.90;;;;;;5060659;28;20728;-81
2022/05/28 04:45:19;;;;;;;3.43;1.90;;;12.10;99.90;;;;;;5031594;28;20402;-81
2022/05/28 04:48:04;;;;;;;4.23;2.33;;;12.10;99.90;;;;;;5061954;28;20397;-82
2022/05/28 04:50:49;;;;;;;2.07;1.70;;;12.20;99.90;;;;;;5061962;28;20387;-80
2022/05/28 04:53:33;;;;;;;6.90;1.90;;;12.20;99.90;;;;;;5061042;28;20445;-82
2022/05/28 04:56:18;;;;;;;6.83;2.40;;;12.30;99.90;;;;;;5059588;28;20437;-82
2022/05/28 04:59:03;;;;;;;9.40;2.70;;;12.30;99.90;;;;;;5059968;28;20414;-81
2022/05/28 05:01:48;;;;;;;9.77;2.67;;;12.50;99.90;;;;;;5060044;28;20393;-82
2022/05/28 05:04:35;;;;;;;3.40;1.77;;;12.60;99.90;;;;;;5044924;28;20393;-82
2022/05/28 05:07:20;;;;;;;9.37;1.60;;;12.60;99.90;;;;;;5060332;28;20393;-81
2022/05/28 05:10:04;;;;;;;12.80;2.50;;;12.60;99.90;;;;;;5060757;28;20394;-81
2022/05/28 05:12:49;;;;;;;3.47;1.67;;;12.50;99.90;;;;;;5060131;28;20457;-81
2022/05/28 05:15:34;;;;;;;5.20;1.60;;;12.60;99.90;;;;;;5064206;28;20738;-81
2022/05/28 05:18:18;;;;;;;3.20;1.80;;;12.60;99.90;;;;;;5064159;28;20382;-81
2022/05/28 05:21:03;;;;;;;2.30;1.73;;;12.70;99.90;;;;;;5063965;28;20472;-81
2022/05/28 05:23:48;;;;;;;4.20;2.17;;;12.70;99.90;;;;;;5065067;28;20409;-81
2022/05/28 05:26:32;;;;;;;5.43;1.53;;;12.70;99.90;;;;;;5055588;28;20383;-79
2022/05/28 05:29:18;;;;;;;7.53;2.23;;;12.70;99.90;;;;;;5071587;28;20409;-78
2022/05/28 05:32:03;;;;;;;3.93;1.90;;;12.70;99.90;;;;;;5070656;28;20394;-80
2022/05/28 05:34:48;;;;;;;3.77;2.10;;;12.80;99.90;;;;;;5048513;28;20741;-81
2022/05/28 05:37:32;;;;;;;5.40;2.40;;;12.70;99.90;;;;;;5063626;28;20863;-81
2022/05/28 05:40:17;;;;;;;2.93;2.07;;;12.70;99.90;;;;;;5063295;28;20440;-81
2022/05/28 05:43:01;;;;;;;6.60;1.70;;;12.90;99.90;;;;;;5065420;28;20390;-80
2022/05/28 05:46:02;;;;;;;11.50;1.93;;;13.00;99.90;;;;;;5066148;28;20982;-81
2022/05/28 05:48:47;;;;;;;3.40;2.10;;;12.80;99.90;;;;;;5064857;28;20476;-82
2022/05/28 05:51:32;;;;;;;3.20;2.17;;;12.80;99.90;;;;;;5062948;28;20440;-81
2022/05/28 05:54:16;;;;;;;5.17;1.30;;;12.80;99.90;;;;;;5062924;28;20486;-80
2022/05/28 05:57:01;;;;;;;4.33;2.20;;;12.60;99.90;;;;;;5020267;28;20463;-82
2022/05/28 05:59:45;;;;;;;7.60;2.03;;;13.00;99.90;;;;;;5021423;28;20484;-80
2022/05/28 06:02:29;;;;;;;8.10;2.03;;;12.60;99.90;;;;;;5022688;28;20388;-81
2022/05/28 06:05:14;;;;;;;4.87;2.50;;;12.70;99.90;;;;;;4995763;28;20384;-80
2022/05/28 06:07:58;;;;;;;2.20;2.00;;;13.00;99.90;;;;;;5023102;28;20487;-81
2022/05/28 06:10:45;;;;;;;6.80;1.97;;;13.20;99.90;;;;;;5007511;28;20448;-79
2022/05/28 06:13:30;;;;;;;4.83;2.23;;;13.20;99.90;;;;;;5022124;28;20443;-81
2022/05/28 06:16:15;;;;;;;2.10;1.93;;;13.30;99.90;;;;;;5023215;28;20399;-80
2022/05/28 06:18:59;;;;;;;2.27;1.50;;;13.30;99.90;;;;;;5008768;28;20463;-81
2022/05/28 06:21:43;;;;;;;7.80;2.20;;;13.30;99.90;;;;;;5022832;28;20404;-81
2022/05/28 06:24:28;;;;;;;3.63;1.93;;;13.20;99.90;;;;;;5009101;28;20392;-81
2022/05/28 06:27:13;;;;;;;5.53;2.00;;;13.20;99.90;;;;;;5035185;28;20756;-81
2022/05/28 06:29:57;;;;;;;4.20;2.00;;;13.30;99.90;;;;;;5035179;28;20378;-82
2022/05/28 06:32:45;;;;;;;15.27;2.50;;;13.50;99.90;;;;;;5063139;28;20438;-82
2022/05/28 06:35:35;;;;;;;7.43;1.90;;;13.40;99.90;;;;;;5047815;28;20382;-81
2022/05/28 06:38:20;;;;;;;6.57;1.97;;;13.50;99.90;;;;;;5048326;28;20467;-82
2022/05/28 06:41:05;;;;;;;4.80;2.23;;;13.60;99.90;;;;;;5048302;28;20385;-81
2022/05/28 06:43:51;;;;;;;3.03;2.13;;;13.70;99.90;;;;;;5063833;28;20393;-81
2022/05/28 06:46:35;;;;;;;3.83;1.90;;;13.60;99.90;;;;;;5021473;28;20408;-81
2022/05/28 06:49:20;;;;;;;4.17;2.17;;;13.70;99.90;;;;;;5020816;28;20403;-81
2022/05/28 06:52:04;;;;;;;14.30;2.70;;;13.80;99.90;;;;;;5014232;28;20917;-81
2022/05/28 06:54:49;;;;;;;5.13;2.30;;;14.00;99.90;;;;;;5009195;28;20399;-79
2022/05/28 06:57:33;;;;;;;4.27;2.23;;;14.10;99.90;;;;;;5014795;28;20387;-79
2022/05/28 07:00:19;;;;;;;4.20;2.13;;;14.20;99.90;;;;;;5026894;28;20495;-82
2022/05/28 07:03:04;;;;;;;5.30;2.57;;;14.10;99.90;;;;;;5018611;28;20456;-80
2022/05/28 07:05:49;;;;;;;4.60;1.90;;;14.00;99.90;;;;;;5016534;28;20427;-82
2022/05/28 07:08:35;;;;;;;7.83;3.63;;;14.20;99.90;;;;;;5030405;28;20476;-81
2022/05/28 07:11:19;;;;;;;4.20;1.50;;;14.40;99.90;;;;;;5023364;28;20506;-78
2022/05/28 07:14:04;;;;;;;6.17;2.10;;;13.90;99.90;;;;;;5032699;28;20456;-78
2022/05/28 07:16:48;;;;;;;2.80;1.70;;;14.10;99.90;;;;;;5027782;28;20418;-77
2022/05/28 07:19:33;;;;;;;4.23;1.60;;;14.20;99.90;;;;;;5071616;28;20390;-78
2022/05/28 07:22:18;;;;;;;2.67;1.70;;;13.80;99.90;;;;;;5056080;28;20397;-78
2022/05/28 07:25:03;;;;;;;2.17;1.50;;;14.00;99.90;;;;;;5069553;28;20390;-78
2022/05/28 07:27:48;;;;;;;1.60;1.50;;;14.20;99.90;;;;;;5064001;28;20421;-82
2022/05/28 07:30:32;;;;;;;2.23;1.43;;;14.30;99.90;;;;;;5063516;28;20474;-82
2022/05/28 07:33:17;;;;;;;6.10;2.07;;;14.30;99.90;;;;;;5063951;28;20492;-82
2022/05/28 07:36:03;;;;;;;3.57;2.00;;;14.40;99.90;;;;;;5064126;28;20437;-82
2022/05/28 07:38:52;;;;;;;3.20;2.10;;;14.50;99.90;;;;;;5063955;28;20390;-80
2022/05/28 07:41:37;;;;;;;11.33;2.27;;;14.40;99.90;;;;;;5021376;28;20460;-80
2022/05/28 07:44:21;;;;;;;4.23;1.90;;;14.30;99.90;;;;;;5049374;28;20405;-81
2022/05/28 07:47:07;;;;;;;3.70;2.60;;;14.30;99.90;;;;;;5033759;28;20422;-81
2022/05/28 07:49:52;;;;;;;3.33;1.90;;;14.20;99.90;;;;;;5047937;28;20757;-80
2022/05/28 07:52:36;;;;;;;2.63;1.70;;;14.20;99.90;;;;;;5047238;28;20444;-81
2022/05/28 07:55:21;;;;;;;4.67;2.37;;;14.10;99.90;;;;;;5062153;28;20994;-81
2022/05/28 07:58:11;;;;;;;2.67;2.47;;;14.10;99.90;;;;;;5074576;28;20499;-81
2022/05/28 08:00:56;;;;;;;9.97;1.90;;;14.00;99.90;;;;;;5068439;28;20393;-80
2022/05/28 08:03:40;;;;;;;3.93;1.90;;;14.00;99.90;;;;;;5083878;28;20397;-80
2022/05/28 08:06:26;;;;;;;5.40;2.30;;;14.00;99.90;;;;;;5083205;28;20401;-80
2022/05/28 08:09:13;;;;;;;5.90;2.07;;;14.00;99.90;;;;;;5083886;28;20536;-80
2022/05/28 08:11:57;;;;;;;8.10;1.90;;;14.10;99.90;;;;;;5067696;28;20400;-81
2022/05/28 08:14:42;;;;;;;3.77;1.77;;;14.30;99.90;;;;;;5082868;28;20385;-81
2022/05/28 08:17:27;;;;;;;7.80;3.33;;;14.40;99.90;;;;;;5068015;28;20519;-79
2022/05/28 08:20:12;;;;;;;9.45;2.70;;;14.70;99.90;;;;;;5052795;28;20405;-80
2022/05/28 08:25:57;;;;;;;2.90;1.60;;;14.70;99.90;;;;;;5072232;28;20874;-80
2022/05/28 08:28:42;;;;;;;5.00;2.10;;;14.80;99.90;;;;;;5081692;28;20935;-82
2022/05/28 08:31:26;;;;;;;3.83;1.60;;;14.80;99.90;;;;;;5083460;28;20460;-80
2022/05/28 08:34:11;;;;;;;7.67;2.50;;;14.90;99.90;;;;;;5070491;28;20940;-78
2022/05/28 08:36:56;;;;;;;6.03;2.07;;;15.00;99.90;;;;;;5056032;28;20381;-81
2022/05/28 08:39:40;;;;;;;3.00;2.13;;;14.80;99.90;;;;;;5083028;28;20428;-81
2022/05/28 08:42:27;;;;;;;2.93;1.93;;;14.80;99.90;;;;;;5071255;28;20388;-78
2022/05/28 08:45:14;;;;;;;6.77;1.90;;;14.70;99.90;;;;;;5069635;28;20443;-81
2022/05/28 08:48:00;;;;;;;2.40;1.67;;;14.90;99.90;;;;;;5069331;28;20762;-81
2022/05/28 08:51:13;;;;;;;3.23;1.67;;;15.00;99.90;;;;;;5060287;28;20399;-82
2022/05/28 08:54:10;;;;;;;3.23;2.03;;;15.20;99.90;;;;;;5076174;28;20448;-81
2022/05/28 08:57:13;;;;;;;2.10;1.33;;;15.00;99.90;;;;;;5073572;28;20567;-82
2022/05/28 09:00:12;;;;;;;3.97;1.60;;;15.20;99.90;;;;;;5032152;28;20402;-82
2022/05/28 09:03:09;;;;;;;5.90;1.60;;;15.60;99.90;;;;;;5001056;28;20502;-81
2022/05/28 09:06:14;;;;;;;2.73;1.40;;;15.40;99.90;;;;;;5000094;28;20414;-81
2022/05/28 09:08:59;;;;;;;4.27;2.07;;;15.40;99.90;;;;;;5023616;28;20536;-82
2022/05/28 09:11:59;;;;;;;3.17;2.00;;;15.50;99.90;;;;;;5013967;28;20466;-83
2022/05/28 09:14:44;;;;;;;6.83;1.70;;;15.20;99.90;;;;;;5045555;28;20410;-82
2022/05/28 09:17:34;;;;;;;3.00;1.50;;;15.30;99.90;;;;;;5044865;28;20436;-82
2022/05/28 09:20:27;;;;;;;2.60;1.47;;;15.40;99.90;;;;;;5006614;28;20388;-81
2022/05/28 09:23:15;;;;;;;1.83;1.40;;;15.60;99.90;;;;;;5025135;28;20962;-82
2022/05/28 09:26:03;;;;;;;2.07;1.33;;;15.90;99.90;;;;;;5030315;28;20470;-82
2022/05/28 09:29:08;;;;;;;5.27;1.70;;;16.20;99.90;;;;;;5027776;28;20387;-81
2022/05/28 09:32:27;;;;;;;4.23;1.53;;;16.50;99.90;;;;;;5013950;28;20406;-82
2022/05/28 09:35:43;;;;;;;2.07;1.80;;;16.60;99.90;;;;;;5028103;28;20391;-82
2022/05/28 09:39:01;;;;;;;1.87;1.70;;;16.80;99.90;;;;;;5056352;28;20385;-81
2022/05/28 09:42:26;;;;;;;6.20;2.27;;;16.90;99.90;;;;;;5070544;28;20368;-81
2022/05/28 09:45:36;;;;;;;2.63;1.83;;;16.70;99.90;;;;;;5072081;28;20386;-81
2022/05/28 09:48:24;;;;;;;3.27;1.73;;;16.60;99.90;;;;;;5072008;28;20388;-83
2022/05/28 09:51:26;;;;;;;1.83;1.50;;;16.60;99.90;;;;;;5057220;28;20392;-81
2022/05/28 09:54:33;;;;;;;2.03;1.83;;;16.70;99.90;;;;;;5052253;28;20503;-82
2022/05/28 09:57:27;;;;;;;3.00;1.80;;;16.80;99.90;;;;;;5065009;28;20392;-82
2022/05/28 10:00:13;;;;;;;2.90;1.67;;;16.40;99.90;;;;;;5042415;28;20375;-82
2022/05/28 10:06:09;;;;;;;5.80;1.77;;;16.30;99.90;;;;;;5050438;28;20389;-82
2022/05/28 10:08:59;;;;;;;2.17;1.97;;;16.20;99.90;;;;;;5007839;28;20457;-82
2022/05/28 10:11:52;;;;;;;2.33;1.70;;;16.80;99.90;;;;;;5006976;28;20414;-82
2022/05/28 10:14:40;;;;;;;2.50;1.87;;;16.90;99.90;;;;;;5048390;28;20417;-82
2022/05/28 10:17:26;;;;;;;2.40;2.07;;;17.40;99.90;;;;;;5064084;28;20386;-82
2022/05/28 10:20:17;;;;;;;2.83;1.80;;;17.40;99.90;;;;;;5067227;28;20398;-81
2022/05/28 10:23:10;;;;;;;5.33;1.97;;;17.20;99.90;;;;;;5058518;28;20426;-80
2022/05/28 10:25:55;;;;;;;1.87;1.33;;;17.00;99.90;;;;;;5061950;28;20415;-81
2022/05/28 10:28:53;;;;;;;2.27;1.30;;;17.10;99.90;;;;;;5073578;28;20435;-81
2022/05/28 10:31:58;;;;;;;7.40;1.60;;;17.20;99.90;;;;;;5085991;28;20446;-79
2022/05/28 10:34:43;;;;;;;4.93;1.60;;;17.40;99.90;;;;;;5026219;28;20411;-83
2022/05/28 10:37:30;;;;;;;5.10;2.07;;;17.80;99.90;;;;;;5007500;28;20426;-81
2022/05/28 10:40:23;;;;;;;3.63;2.10;;;18.20;99.90;;;;;;4993383;28;20510;-80
2022/05/28 10:43:25;;;;;;;1.57;1.47;;;18.30;95.90;;;;;;5007780;28;20423;-80
2022/05/28 10:46:38;;;;;;;3.13;1.67;;;18.40;95.80;;;;;;5009165;28;20407;-81
2022/05/28 10:49:54;;;;;;;3.07;1.60;;;18.20;96.20;;;;;;4993637;28;20457;-81
2022/05/28 10:53:08;;;;;;;2.73;2.53;;;18.20;98.40;;;;;;5021621;28;20498;-83
2022/05/28 10:56:27;;;;;;;2.70;1.50;;;18.60;97.50;;;;;;5021882;28;20446;-82
2022/05/28 10:59:29;;;;;;;5.00;2.17;;;18.80;96.30;;;;;;5009857;28;20423;-81
2022/05/28 11:02:44;;;;;;;2.20;1.83;;;18.60;97.60;;;;;;5007212;28;20395;-83
2022/05/28 11:06:02;;;;;;;2.87;1.87;;;18.20;97.50;;;;;;5040113;28;20479;-82
2022/05/28 11:09:08;;;;;;;9.67;2.23;;;18.40;95.20;;;;;;5082459;28;20960;-81
2022/05/28 11:12:05;;;;;;;3.60;2.17;;;18.50;97.00;;;;;;5082155;28;20451;-82
2022/05/28 11:15:07;;;;;;;1.67;1.50;;;18.50;92.00;;;;;;5066671;28;20460;-82
2022/05/28 11:18:21;;;;;;;6.57;2.70;;;18.90;93.60;;;;;;5066495;28;20380;-81
2022/05/28 11:21:35;;;;;;;5.73;1.20;;;18.80;93.00;;;;;;5071846;28;20389;-80
2022/05/28 11:24:52;;;;;;;5.40;2.07;;;18.80;89.90;;;;;;5085269;28;20885;-80
2022/05/28 11:28:15;;;;;;;6.83;1.77;;;19.20;86.60;;;;;;5085345;28;20389;-80
2022/05/28 11:31:29;;;;;;;3.43;1.53;;;19.30;87.20;;;;;;5092021;28;20389;-81
2022/05/28 11:34:24;;;;;;;4.20;1.90;;;19.00;90.40;;;;;;5080529;28;20444;-81
2022/05/28 11:40:48;;;;;;;4.43;2.13;;;18.50;92.90;;;;;;5038461;28;20977;-81
2022/05/28 11:43:50;;;;;;;3.40;1.70;;;18.30;93.00;;;;;;5032010;28;20431;-81
2022/05/28 11:46:54;;;;;;;2.23;1.60;;;18.60;95.70;;;;;;5018080;28;20474;-82
2022/05/28 11:53:27;;;;;;;4.20;2.03;;;19.00;91.90;;;;;;5016772;28;20466;-79
2022/05/28 11:56:17;;;;;;;4.53;1.90;;;19.10;93.70;;;;;;5006544;28;20427;-80
2022/05/28 11:59:11;;;;;;;3.00;1.60;;;19.60;93.10;;;;;;5019985;28;20827;-81
2022/05/28 12:02:10;;;;;;;2.70;1.60;;;19.80;91.50;;;;;;4991868;28;20388;-83
2022/05/28 12:04:55;;;;;;;3.10;2.00;;;19.40;91.70;;;;;;5008522;28;20426;-81
2022/05/28 12:07:40;;;;;;;4.13;2.20;;;19.70;89.20;;;;;;5046421;28;20451;-80
2022/05/28 12:10:45;;;;;;;3.13;1.50;;;20.50;89.60;;;;;;5045036;28;20458;-80
2022/05/28 12:13:45;;;;;;;6.03;1.80;;;21.00;84.30;;;;;;5048459;28;20525;-80
2022/05/28 12:16:40;;;;;;;1.80;1.33;;;20.90;84.30;;;;;;5065553;28;20416;-81
2022/05/28 12:19:25;;;;;;;2.23;1.47;;;20.60;84.30;;;;;;5066111;28;20748;-81
2022/05/28 12:22:28;;;;;;;3.13;1.60;;;20.90;86.90;;;;;;5082453;28;20631;-82
2022/05/28 12:25:33;;;;;;;1.77;1.63;;;21.20;86.40;;;;;;5071061;28;20386;-83
2022/05/28 12:28:32;;;;;;;2.07;1.70;;;20.90;83.90;;;;;;5085652;28;20447;-81
2022/05/28 12:31:27;;;;;;;3.23;1.70;;;20.90;83.80;;;;;;5065797;28;20497;-80
2022/05/28 12:34:21;;;;;;;3.27;2.27;;;20.60;80.70;;;;;;5072551;28;20491;-80
2022/05/28 12:37:16;;;;;;;2.57;1.80;;;20.20;82.50;;;;;;5086166;28;20401;-80
2022/05/28 12:40:17;;;;;;;4.07;1.70;;;20.60;83.80;;;;;;5054197;28;20725;-81
2022/05/28 12:43:19;;;;;;;4.90;1.80;;;21.70;77.20;;;;;;5085031;28;20389;-81
2022/05/28 12:46:18;;;;;;;1.70;1.60;;;22.60;84.20;;;;;;5085113;28;20403;-80
2022/05/28 12:49:10;;;;;;;3.37;1.70;;;23.10;74.40;;;;;;5069884;28;20389;-81
2022/05/28 12:52:20;;;;;;;6.60;1.77;;;22.80;76.10;;;;;;5068884;28;20452;-82
2022/05/28 12:55:28;;;;;;;2.17;1.97;;;23.70;71.50;;;;;;5083892;28;20501;-83
2022/05/28 12:58:27;;;;;;;5.90;1.90;;;22.60;70.90;;;;;;5073741;28;20421;-80
2022/05/28 13:01:28;;;;;;;3.50;2.00;;;21.80;77.80;;;;;;5078129;28;20381;-82
2022/05/28 13:04:18;;;;;;;2.60;2.37;;;21.40;77.10;;;;;;5092894;28;20438;-82
2022/05/28 13:07:06;;;;;;;3.10;1.70;;;21.80;74.70;;;;;;5092910;28;20438;-80
2022/05/28 13:09:59;;;;;;;2.40;1.50;;;22.10;74.30;;;;;;5074099;28;20417;-81
2022/05/28 13:12:58;;;;;;;2.93;2.03;;;22.50;69.10;;;;;;5055899;28;20439;-80
2022/05/28 13:16:24;;;;;;;3.50;1.50;;;21.90;68.60;;;;;;5052405;28;20422;-83
2022/05/28 13:19:26;;;;;;;2.70;1.73;;;21.30;69.70;;;;;;5063484;28;20393;-83
2022/05/28 13:22:37;;;;;;;1.67;1.53;;;20.60;75.70;;;;;;5017031;28;20432;-81
2022/05/28 13:25:42;;;;;;;4.93;1.50;;;20.30;77.60;;;;;;5049257;28;20394;-82
2022/05/28 13:28:54;;;;;;;1.67;1.53;;;20.70;73.50;;;;;;5048180;28;20797;-80
2022/05/28 13:31:48;;;;;;;2.80;1.50;;;21.50;75.20;;;;;;5047956;28;20402;-81
2022/05/28 13:34:32;;;;;;;2.40;2.20;;;22.20;72.20;;;;;;5070712;28;20429;-83
2022/05/28 13:37:19;;;;;;;2.10;1.90;;;22.50;67.40;;;;;;5074555;28;20390;-84
2022/05/28 13:40:11;;;;;;;2.43;1.73;;;22.20;68.30;;;;;;5057453;28;20804;-82
2022/05/28 13:43:00;;;;;;;1.77;1.63;;;22.00;69.50;;;;;;5068957;28;20969;-81
2022/05/28 13:45:49;;;;;;;3.70;2.00;;;21.50;71.40;;;;;;5067230;28;20418;-82
2022/05/28 13:48:40;;;;;;;5.33;1.67;;;21.60;74.40;;;;;;5054381;28;20929;-84
2022/05/28 13:51:26;;;;;;;2.23;1.20;;;21.70;73.80;;;;;;5067518;28;20382;-82
2022/05/28 13:54:11;;;;;;;2.03;1.73;;;22.80;65.20;;;;;;5087598;28;20449;-82
2022/05/28 13:57:05;;;;;;;4.13;1.10;;;22.90;64.90;;;;;;5087376;28;20474;-82
2022/05/28 13:59:57;;;;;;;1.60;1.50;;;22.90;59.00;;;;;;5072656;28;20405;-83
2022/05/28 14:02:54;;;;;;;4.20;1.90;;;23.30;60.70;;;;;;5084911;28;20413;-83
2022/05/28 14:05:41;;;;;;;2.40;1.60;;;23.30;58.10;;;;;;5086453;28;20447;-81
2022/05/28 14:08:46;;;;;;;1.70;1.43;;;23.00;62.90;;;;;;5067396;28;20920;-80
2022/05/28 14:11:37;;;;;;;1.30;1.20;;;23.70;57.00;;;;;;5082994;28;20498;-82
2022/05/28 14:14:25;;;;;;;1.73;1.40;;;23.90;56.20;;;;;;5022267;28;20493;-82
2022/05/28 14:17:27;;;;;;;1.40;1.30;;;23.70;54.20;;;;;;5057892;28;20762;-81
2022/05/28 14:23:47;;;;;;;1.47;1.37;;;24.00;53.70;;;;;;5013674;28;20507;-80
2022/05/28 14:26:32;;;;;;;1.40;1.30;;;24.00;54.40;;;;;;5004358;28;20443;-80
2022/05/28 14:29:29;;;;;;;8.80;2.30;;;23.80;54.50;;;;;;5017621;28;20415;-79
2022/05/28 14:32:29;;;;;;;1.83;1.10;;;24.10;54.60;;;;;;5030995;28;20427;-79
2022/05/28 14:35:47;;;;;;;1.53;1.43;;;24.10;52.80;;;;;;5013177;28;20407;-80
2022/05/28 14:38:41;;;;;;;4.63;1.53;;;23.80;52.30;;;;;;5043458;28;20430;-81
2022/05/28 14:42:01;;;;;;;1.40;1.30;;;23.50;54.40;;;;;;5049299;28;20406;-80
2022/05/28 14:44:51;;;;;;;1.70;1.30;;;23.70;54.80;;;;;;5045836;28;20399;-79
2022/05/28 14:47:38;;;;;;;2.33;1.50;;;23.70;52.60;;;;;;5035305;28;20457;-80
2022/05/28 14:50:36;;;;;;;6.10;1.87;;;23.50;54.30;;;;;;5029712;28;20458;-80
2022/05/28 14:53:36;;;;;;;1.40;1.10;;;23.60;52.70;;;;;;5015563;28;20467;-81
2022/05/28 14:56:35;;;;;;;1.20;1.10;;;23.60;55.60;;;;;;5029841;28;20431;-80
2022/05/28 14:59:35;;;;;;;2.03;1.43;;;23.60;54.40;;;;;;5011230;28;20416;-80
2022/05/28 15:02:27;;;;;;;2.07;1.13;;;23.60;55.40;;;;;;5050014;28;20465;-80
2022/05/28 15:05:21;;;;;;;1.97;1.40;;;23.60;54.20;;;;;;5037606;28;20390;-79
2022/05/28 15:08:29;;;;;;;1.63;1.53;;;23.60;53.20;;;;;;5024070;28;20422;-80